LFKJ/AJA METAR and TAF weather

Enter ICAO airport designator
Station Type Date Time Source
LFKJ METAR 2019/06/20 07:00 UTC NOAA

LFKJ 200700Z AUTO VRB02KT CAVOK 25/09 Q1014 BECMG 22012KT


Station Type Date Time Source
LFKJ Decoded METAR 2019/06/20 07:00 UTC NOAA

Ajaccio, France (LFKJ) 41-55N 008-48E 9M
Jun 20, 2019 - 03:00 AM EDT / 2019.06.20 0700 UTC
Wind: Variable at 2 MPH (2 KT):0
Visibility: greater than 7 mile(s):0
Temperature: 77 F (25 C)
Dew Point: 48 F (9 C)
Relative Humidity: 36%
Pressure (altimeter): 29.94 in. Hg (1014 hPa)
ob: LFKJ 200700Z AUTO VRB02KT CAVOK 25/09 Q1014 BECMG 22012KT
cycle: 7

Station Type Date Time Source
LFKJ TAF 2019/06/20 03:46 UTC NOAA

TAF LFKJ 200200Z 2003/2103 04006KT CAVOK
BECMG 2008/2010 22012KT
BECMG 2019/2021 05004KT

Example: see airport list